sensor_id;sensor_type;location;lat;lon;timestamp;pressure;altitude;pressure_sealevel;temperature;humidity
72585;BME280;60618;40.084;32.908;2023-09-18T00:01:51;89765.94;;;13.08;74.80
72585;BME280;60618;40.084;32.908;2023-09-18T00:04:18;89753.75;;;13.01;75.58
72585;BME280;60618;40.084;32.908;2023-09-18T00:06:45;89753.28;;;13.03;75.12
72585;BME280;60618;40.084;32.908;2023-09-18T00:09:12;89763.91;;;12.92;76.14
72585;BME280;60618;40.084;32.908;2023-09-18T00:11:39;89770.72;;;12.87;76.69
72585;BME280;60618;40.084;32.908;2023-09-18T00:14:08;89765.34;;;12.82;76.85
72585;BME280;60618;40.084;32.908;2023-09-18T00:16:35;89762.66;;;12.82;76.95
72585;BME280;60618;40.084;32.908;2023-09-18T00:19:21;89768.25;;;12.84;77.29
72585;BME280;60618;40.084;32.908;2023-09-18T00:21:48;89762.97;;;12.95;76.64
72585;BME280;60618;40.084;32.908;2023-09-18T00:24:15;89775.53;;;12.77;77.35
72585;BME280;60618;40.084;32.908;2023-09-18T00:26:42;89757.00;;;12.68;78.03
72585;BME280;60618;40.084;32.908;2023-09-18T00:29:09;89774.25;;;12.67;78.06
72585;BME280;60618;40.084;32.908;2023-09-18T00:31:36;89775.72;;;12.68;78.24
72585;BME280;60618;40.084;32.908;2023-09-18T00:34:03;89777.44;;;12.71;78.16
72585;BME280;60618;40.084;32.908;2023-09-18T00:36:30;89761.34;;;12.60;78.44
72585;BME280;60618;40.084;32.908;2023-09-18T00:38:57;89763.28;;;12.60;78.82
72585;BME280;60618;40.084;32.908;2023-09-18T00:41:24;89769.78;;;12.53;79.27
72585;BME280;60618;40.084;32.908;2023-09-18T00:43:51;89757.66;;;12.52;79.10
72585;BME280;60618;40.084;32.908;2023-09-18T00:46:18;89771.44;;;12.45;79.48
72585;BME280;60618;40.084;32.908;2023-09-18T00:48:45;89755.84;;;12.38;80.01
72585;BME280;60618;40.084;32.908;2023-09-18T00:51:13;89757.78;;;12.37;80.12
72585;BME280;60618;40.084;32.908;2023-09-18T00:53:43;89765.50;;;12.30;80.48
72585;BME280;60618;40.084;32.908;2023-09-18T00:56:11;89757.97;;;12.28;80.50
72585;BME280;60618;40.084;32.908;2023-09-18T00:58:40;89761.34;;;12.23;80.66
72585;BME280;60618;40.084;32.908;2023-09-18T01:01:07;89765.72;;;12.26;80.93
72585;BME280;60618;40.084;32.908;2023-09-18T01:03:35;89760.59;;;12.23;80.75
72585;BME280;60618;40.084;32.908;2023-09-18T01:06:02;89775.38;;;12.18;81.10
72585;BME280;60618;40.084;32.908;2023-09-18T01:08:29;89766.88;;;12.19;81.38
72585;BME280;60618;40.084;32.908;2023-09-18T01:13:45;89767.22;;;12.01;82.51
72585;BME280;60618;40.084;32.908;2023-09-18T01:16:22;89761.38;;;11.97;82.50
72585;BME280;60618;40.084;32.908;2023-09-18T01:18:51;89738.75;;;11.92;83.01
72585;BME280;60618;40.084;32.908;2023-09-18T01:21:19;89742.59;;;11.86;83.28
72585;BME280;60618;40.084;32.908;2023-09-18T01:23:47;89752.81;;;11.87;83.83
72585;BME280;60618;40.084;32.908;2023-09-18T01:26:14;89756.69;;;11.86;84.28
72585;BME280;60618;40.084;32.908;2023-09-18T01:28:41;89748.06;;;12.03;83.61
72585;BME280;60618;40.084;32.908;2023-09-18T01:31:08;89745.09;;;11.95;83.65
72585;BME280;60618;40.084;32.908;2023-09-18T01:33:36;89743.38;;;11.92;84.22
72585;BME280;60618;40.084;32.908;2023-09-18T01:36:05;89740.44;;;11.90;84.26
72585;BME280;60618;40.084;32.908;2023-09-18T01:38:33;89732.63;;;11.81;84.89
72585;BME280;60618;40.084;32.908;2023-09-18T01:41:02;89748.16;;;11.82;84.92
72585;BME280;60618;40.084;32.908;2023-09-18T01:43:28;89739.31;;;11.76;85.09
72585;BME280;60618;40.084;32.908;2023-09-18T01:45:55;89739.28;;;11.71;85.08
72585;BME280;60618;40.084;32.908;2023-09-18T01:48:23;89729.09;;;11.69;85.66
72585;BME280;60618;40.084;32.908;2023-09-18T01:50:50;89723.19;;;11.59;86.13
72585;BME280;60618;40.084;32.908;2023-09-18T01:53:16;89739.44;;;11.61;86.06
72585;BME280;60618;40.084;32.908;2023-09-18T01:55:43;89737.50;;;11.62;85.94
72585;BME280;60618;40.084;32.908;2023-09-18T01:58:10;89733.31;;;11.55;85.71
72585;BME280;60618;40.084;32.908;2023-09-18T02:00:38;89719.94;;;11.50;86.31
72585;BME280;60618;40.084;32.908;2023-09-18T02:03:05;89744.63;;;11.45;86.62
72585;BME280;60618;40.084;32.908;2023-09-18T02:05:52;89726.22;;;11.47;86.59
72585;BME280;60618;40.084;32.908;2023-09-18T02:08:19;89728.41;;;11.48;86.59
72585;BME280;60618;40.084;32.908;2023-09-18T02:10:46;89738.88;;;11.52;86.62
72585;BME280;60618;40.084;32.908;2023-09-18T02:13:13;89746.34;;;11.48;87.16
72585;BME280;60618;40.084;32.908;2023-09-18T02:15:40;89739.13;;;11.54;86.79
72585;BME280;60618;40.084;32.908;2023-09-18T02:18:07;89718.69;;;11.45;87.15
72585;BME280;60618;40.084;32.908;2023-09-18T02:20:41;89740.03;;;11.45;87.12
72585;BME280;60618;40.084;32.908;2023-09-18T02:23:08;89747.03;;;11.43;87.35
72585;BME280;60618;40.084;32.908;2023-09-18T02:25:35;89742.84;;;11.36;87.59
72585;BME280;60618;40.084;32.908;2023-09-18T02:28:03;89735.00;;;11.27;88.17
72585;BME280;60618;40.084;32.908;2023-09-18T02:30:30;89747.34;;;11.24;88.59
72585;BME280;60618;40.084;32.908;2023-09-18T02:32:57;89748.00;;;11.19;88.89
72585;BME280;60618;40.084;32.908;2023-09-18T02:35:24;89749.66;;;11.17;88.65
72585;BME280;60618;40.084;32.908;2023-09-18T02:37:51;89754.75;;;11.15;88.70
72585;BME280;60618;40.084;32.908;2023-09-18T02:40:18;89753.25;;;11.14;88.89
72585;BME280;60618;40.084;32.908;2023-09-18T02:42:48;89751.28;;;11.08;89.08
72585;BME280;60618;40.084;32.908;2023-09-18T02:45:15;89747.81;;;11.02;89.33
72585;BME280;60618;40.084;32.908;2023-09-18T02:47:42;89751.75;;;11.07;89.71
72585;BME280;60618;40.084;32.908;2023-09-18T02:50:09;89746.13;;;11.05;89.27
72585;BME280;60618;40.084;32.908;2023-09-18T02:52:36;89763.06;;;11.02;89.36
72585;BME280;60618;40.084;32.908;2023-09-18T02:55:03;89755.75;;;10.97;90.18
72585;BME280;60618;40.084;32.908;2023-09-18T02:57:30;89753.13;;;11.02;89.37
72585;BME280;60618;40.084;32.908;2023-09-18T02:59:57;89760.34;;;10.96;89.81
72585;BME280;60618;40.084;32.908;2023-09-18T03:02:24;89761.94;;;10.88;90.48
72585;BME280;60618;40.084;32.908;2023-09-18T03:04:51;89763.53;;;10.80;90.90
72585;BME280;60618;40.084;32.908;2023-09-18T03:07:18;89771.78;;;10.82;90.81
72585;BME280;60618;40.084;32.908;2023-09-18T03:09:45;89768.88;;;10.80;90.75
72585;BME280;60618;40.084;32.908;2023-09-18T03:12:12;89758.34;;;10.71;91.03
72585;BME280;60618;40.084;32.908;2023-09-18T03:14:39;89757.75;;;10.82;91.27
72585;BME280;60618;40.084;32.908;2023-09-18T03:17:06;89762.09;;;10.79;90.81
72585;BME280;60618;40.084;32.908;2023-09-18T03:19:33;89753.28;;;10.73;90.73
72585;BME280;60618;40.084;32.908;2023-09-18T03:22:00;89762.38;;;10.66;91.06
72585;BME280;60618;40.084;32.908;2023-09-18T03:24:27;89755.59;;;10.65;91.65
72585;BME280;60618;40.084;32.908;2023-09-18T03:26:54;89762.84;;;10.65;91.35
72585;BME280;60618;40.084;32.908;2023-09-18T03:29:21;89759.66;;;10.61;91.01
72585;BME280;60618;40.084;32.908;2023-09-18T03:31:48;89758.31;;;10.50;92.65
72585;BME280;60618;40.084;32.908;2023-09-18T03:34:15;89762.38;;;10.46;92.87
72585;BME280;60618;40.084;32.908;2023-09-18T03:36:41;89760.69;;;10.48;92.63
72585;BME280;60618;40.084;32.908;2023-09-18T03:39:08;89761.53;;;10.55;92.10
72585;BME280;60618;40.084;32.908;2023-09-18T03:41:35;89767.22;;;10.47;91.94
72585;BME280;60618;40.084;32.908;2023-09-18T03:44:02;89759.97;;;10.48;92.43
72585;BME280;60618;40.084;32.908;2023-09-18T03:46:30;89772.81;;;10.49;92.66
72585;BME280;60618;40.084;32.908;2023-09-18T03:48:57;89767.09;;;10.57;92.07
72585;BME280;60618;40.084;32.908;2023-09-18T03:51:24;89764.31;;;10.66;91.71
72585;BME280;60618;40.084;32.908;2023-09-18T03:53:51;89766.25;;;10.65;91.88
72585;BME280;60618;40.084;32.908;2023-09-18T03:56:18;89774.84;;;10.75;91.16
72585;BME280;60618;40.084;32.908;2023-09-18T03:58:45;89760.75;;;10.89;90.77
72585;BME280;60618;40.084;32.908;2023-09-18T04:01:12;89765.72;;;11.02;90.00
72585;BME280;60618;40.084;32.908;2023-09-18T04:03:39;89774.78;;;11.30;88.11
72585;BME280;60618;40.084;32.908;2023-09-18T04:06:06;89770.25;;;11.36;87.47
72585;BME280;60618;40.084;32.908;2023-09-18T04:08:33;89760.97;;;11.32;87.97
72585;BME280;60618;40.084;32.908;2023-09-18T04:11:00;89769.41;;;11.25;87.95
72585;BME280;60618;40.084;32.908;2023-09-18T04:13:27;89788.72;;;11.20;88.38
72585;BME280;60618;40.084;32.908;2023-09-18T04:15:54;89784.22;;;11.31;87.89
72585;BME280;60618;40.084;32.908;2023-09-18T04:18:21;89787.22;;;11.39;87.10
72585;BME280;60618;40.084;32.908;2023-09-18T04:20:48;89786.75;;;11.41;87.24
72585;BME280;60618;40.084;32.908;2023-09-18T04:23:21;89793.47;;;11.56;86.88
72585;BME280;60618;40.084;32.908;2023-09-18T04:25:49;89788.09;;;11.77;85.27
72585;BME280;60618;40.084;32.908;2023-09-18T04:28:18;89784.56;;;11.85;84.67
72585;BME280;60618;40.084;32.908;2023-09-18T04:30:46;89786.28;;;11.88;84.09
72585;BME280;60618;40.084;32.908;2023-09-18T04:33:16;89788.22;;;11.88;84.03
72585;BME280;60618;40.084;32.908;2023-09-18T04:35:44;89795.19;;;11.80;84.37
72585;BME280;60618;40.084;32.908;2023-09-18T04:38:11;89796.38;;;11.79;84.51
72585;BME280;60618;40.084;32.908;2023-09-18T04:40:38;89791.75;;;11.79;84.50
72585;BME280;60618;40.084;32.908;2023-09-18T04:43:08;89791.03;;;11.79;84.43
72585;BME280;60618;40.084;32.908;2023-09-18T04:45:34;89804.03;;;11.91;83.59
72585;BME280;60618;40.084;32.908;2023-09-18T04:48:02;89798.22;;;11.93;83.51
72585;BME280;60618;40.084;32.908;2023-09-18T04:50:29;89801.94;;;12.01;82.95
72585;BME280;60618;40.084;32.908;2023-09-18T04:52:56;89806.75;;;12.23;82.15
72585;BME280;60618;40.084;32.908;2023-09-18T04:55:23;89806.84;;;12.08;82.04
72585;BME280;60618;40.084;32.908;2023-09-18T04:57:50;89803.59;;;12.25;81.86
72585;BME280;60618;40.084;32.908;2023-09-18T05:00:17;89808.06;;;12.39;81.02
72585;BME280;60618;40.084;32.908;2023-09-18T05:02:44;89792.31;;;12.41;80.16
72585;BME280;60618;40.084;32.908;2023-09-18T05:05:12;89792.19;;;12.30;79.87
72585;BME280;60618;40.084;32.908;2023-09-18T05:07:39;89796.00;;;12.17;81.04
72585;BME280;60618;40.084;32.908;2023-09-18T05:10:06;89789.59;;;12.35;80.03
72585;BME280;60618;40.084;32.908;2023-09-18T05:12:33;89787.22;;;12.43;79.87
72585;BME280;60618;40.084;32.908;2023-09-18T05:15:01;89795.03;;;12.52;79.74
72585;BME280;60618;40.084;32.908;2023-09-18T05:17:42;89789.34;;;12.39;79.86
72585;BME280;60618;40.084;32.908;2023-09-18T05:20:11;89789.50;;;12.24;80.72
72585;BME280;60618;40.084;32.908;2023-09-18T05:22:39;89785.03;;;12.47;79.77
72585;BME280;60618;40.084;32.908;2023-09-18T05:25:06;89786.06;;;12.55;78.89
72585;BME280;60618;40.084;32.908;2023-09-18T05:27:33;89787.94;;;12.43;79.10
72585;BME280;60618;40.084;32.908;2023-09-18T05:30:00;89787.97;;;12.49;78.31
72585;BME280;60618;40.084;32.908;2023-09-18T05:32:27;89791.47;;;12.66;77.75
72585;BME280;60618;40.084;32.908;2023-09-18T05:34:54;89788.88;;;12.77;77.92
72585;BME280;60618;40.084;32.908;2023-09-18T05:37:21;89795.25;;;12.86;77.03
72585;BME280;60618;40.084;32.908;2023-09-18T05:39:48;89783.66;;;13.00;76.41
72585;BME280;60618;40.084;32.908;2023-09-18T05:42:15;89778.72;;;13.35;75.50
72585;BME280;60618;40.084;32.908;2023-09-18T05:44:42;89783.59;;;13.37;74.83
72585;BME280;60618;40.084;32.908;2023-09-18T05:47:09;89788.19;;;13.31;74.83
72585;BME280;60618;40.084;32.908;2023-09-18T05:49:36;89788.97;;;13.43;73.97
72585;BME280;60618;40.084;32.908;2023-09-18T05:52:03;89784.16;;;13.58;73.17
72585;BME280;60618;40.084;32.908;2023-09-18T05:54:30;89792.22;;;13.69;73.62
72585;BME280;60618;40.084;32.908;2023-09-18T05:56:57;89779.84;;;13.88;72.27
72585;BME280;60618;40.084;32.908;2023-09-18T05:59:24;89786.91;;;13.97;72.37
72585;BME280;60618;40.084;32.908;2023-09-18T06:01:51;89780.31;;;13.92;71.16
72585;BME280;60618;40.084;32.908;2023-09-18T06:04:18;89791.78;;;13.93;69.63
72585;BME280;60618;40.084;32.908;2023-09-18T06:06:45;89784.72;;;14.07;68.88
72585;BME280;60618;40.084;32.908;2023-09-18T06:09:12;89788.16;;;14.46;68.86
72585;BME280;60618;40.084;32.908;2023-09-18T06:11:39;89792.03;;;14.34;67.61
72585;BME280;60618;40.084;32.908;2023-09-18T06:14:06;89797.16;;;14.21;66.05
72585;BME280;60618;40.084;32.908;2023-09-18T06:16:33;89797.63;;;14.25;65.82
72585;BME280;60618;40.084;32.908;2023-09-18T06:19:00;89789.88;;;14.38;65.95
72585;BME280;60618;40.084;32.908;2023-09-18T06:21:27;89797.91;;;14.50;64.47
72585;BME280;60618;40.084;32.908;2023-09-18T14:10:21;89556.63;;;21.96;20.70
72585;BME280;60618;40.084;32.908;2023-09-18T14:12:48;89555.00;;;22.00;21.10
72585;BME280;60618;40.084;32.908;2023-09-18T14:15:15;89554.66;;;22.04;21.41
72585;BME280;60618;40.084;32.908;2023-09-18T14:17:41;89553.22;;;22.18;21.56
72585;BME280;60618;40.084;32.908;2023-09-18T14:20:09;89539.09;;;21.97;22.05
72585;BME280;60618;40.084;32.908;2023-09-18T14:22:36;89549.59;;;21.93;22.35
72585;BME280;60618;40.084;32.908;2023-09-18T14:25:03;89547.06;;;22.02;22.49
72585;BME280;60618;40.084;32.908;2023-09-18T14:27:34;89551.56;;;22.00;22.75
72585;BME280;60618;40.084;32.908;2023-09-18T14:30:02;89551.03;;;22.01;22.58
72585;BME280;60618;40.084;32.908;2023-09-18T14:32:29;89552.13;;;21.98;23.11
72585;BME280;60618;40.084;32.908;2023-09-18T14:34:56;89549.22;;;21.96;23.68
72585;BME280;60618;40.084;32.908;2023-09-18T14:37:23;89561.50;;;21.82;23.70
72585;BME280;60618;40.084;32.908;2023-09-18T14:39:50;89552.47;;;21.79;24.13
72585;BME280;60618;40.084;32.908;2023-09-18T14:42:16;89545.94;;;21.82;24.24
72585;BME280;60618;40.084;32.908;2023-09-18T14:44:43;89548.31;;;21.78;24.99
72585;BME280;60618;40.084;32.908;2023-09-18T14:47:14;89550.97;;;21.63;25.09
72585;BME280;60618;40.084;32.908;2023-09-18T14:49:40;89545.94;;;21.67;25.54
72585;BME280;60618;40.084;32.908;2023-09-18T14:52:07;89550.63;;;21.59;25.75
72585;BME280;60618;40.084;32.908;2023-09-18T14:54:34;89550.63;;;21.59;25.96
72585;BME280;60618;40.084;32.908;2023-09-18T14:57:01;89553.13;;;21.49;26.64
72585;BME280;60618;40.084;32.908;2023-09-18T14:59:28;89561.75;;;21.33;27.19
72585;BME280;60618;40.084;32.908;2023-09-18T15:02:07;89558.47;;;21.27;27.79
72585;BME280;60618;40.084;32.908;2023-09-18T15:04:34;89562.09;;;21.29;28.06
72585;BME280;60618;40.084;32.908;2023-09-18T15:07:02;89562.94;;;21.16;28.40
72585;BME280;60618;40.084;32.908;2023-09-18T15:09:29;89560.19;;;21.09;28.80
72585;BME280;60618;40.084;32.908;2023-09-18T15:11:56;89562.31;;;20.95;29.19
72585;BME280;60618;40.084;32.908;2023-09-18T15:14:23;89560.47;;;20.90;29.52
72585;BME280;60618;40.084;32.908;2023-09-18T15:16:51;89553.53;;;20.74;29.99
72585;BME280;60618;40.084;32.908;2023-09-18T15:19:18;89555.63;;;20.60;30.51
72585;BME280;60618;40.084;32.908;2023-09-18T15:21:46;89551.81;;;20.55;31.02
72585;BME280;60618;40.084;32.908;2023-09-18T15:24:13;89562.44;;;20.53;31.30
72585;BME280;60618;40.084;32.908;2023-09-18T15:26:41;89561.59;;;20.37;31.67
72585;BME280;60618;40.084;32.908;2023-09-18T15:29:07;89561.69;;;20.24;31.91
72585;BME280;60618;40.084;32.908;2023-09-18T15:31:35;89555.31;;;20.14;32.20
72585;BME280;60618;40.084;32.908;2023-09-18T15:34:02;89559.41;;;20.07;32.65
72585;BME280;60618;40.084;32.908;2023-09-18T15:36:30;89558.59;;;19.99;32.89
72585;BME280;60618;40.084;32.908;2023-09-18T15:38:56;89560.94;;;19.95;32.78
72585;BME280;60618;40.084;32.908;2023-09-18T15:41:23;89559.47;;;19.94;32.90
72585;BME280;60618;40.084;32.908;2023-09-18T15:43:50;89562.88;;;19.95;33.31
72585;BME280;60618;40.084;32.908;2023-09-18T15:46:17;89562.88;;;19.95;33.40
72585;BME280;60618;40.084;32.908;2023-09-18T15:48:44;89561.41;;;19.86;33.69
72585;BME280;60618;40.084;32.908;2023-09-18T15:51:11;89559.13;;;19.77;33.78
72585;BME280;60618;40.084;32.908;2023-09-18T15:53:38;89561.44;;;19.73;33.75
72585;BME280;60618;40.084;32.908;2023-09-18T15:56:06;89561.56;;;19.67;34.51
72585;BME280;60618;40.084;32.908;2023-09-18T15:58:33;89560.44;;;19.63;34.61
72585;BME280;60618;40.084;32.908;2023-09-18T16:01:00;89563.59;;;19.53;34.77
72585;BME280;60618;40.084;32.908;2023-09-18T16:03:27;89556.78;;;19.39;35.17
72585;BME280;60618;40.084;32.908;2023-09-18T16:05:54;89560.63;;;19.31;35.53
72585;BME280;60618;40.084;32.908;2023-09-18T16:08:21;89569.25;;;19.29;35.56
72585;BME280;60618;40.084;32.908;2023-09-18T16:10:48;89563.63;;;19.06;36.04
72585;BME280;60618;40.084;32.908;2023-09-18T16:13:16;89565.28;;;18.96;36.46
72585;BME280;60618;40.084;32.908;2023-09-18T16:15:43;89571.44;;;18.96;36.47
72585;BME280;60618;40.084;32.908;2023-09-18T16:18:10;89578.50;;;18.86;36.49
72585;BME280;60618;40.084;32.908;2023-09-18T16:20:37;89564.78;;;18.84;36.73
72585;BME280;60618;40.084;32.908;2023-09-18T16:23:04;89578.00;;;18.75;37.04
72585;BME280;60618;40.084;32.908;2023-09-18T16:25:31;89575.00;;;18.65;37.21
72585;BME280;60618;40.084;32.908;2023-09-18T16:27:57;89572.16;;;18.57;37.15
72585;BME280;60618;40.084;32.908;2023-09-18T16:30:24;89585.97;;;18.54;37.30
72585;BME280;60618;40.084;32.908;2023-09-18T16:32:51;89578.91;;;18.51;37.48
72585;BME280;60618;40.084;32.908;2023-09-18T16:35:18;89572.78;;;18.50;37.54
72585;BME280;60618;40.084;32.908;2023-09-18T16:37:45;89576.53;;;18.47;37.67
72585;BME280;60618;40.084;32.908;2023-09-18T16:40:13;89586.59;;;18.47;37.78
72585;BME280;60618;40.084;32.908;2023-09-18T16:42:40;89589.47;;;18.49;37.58
72585;BME280;60618;40.084;32.908;2023-09-18T16:45:08;89587.63;;;18.43;37.57
72585;BME280;60618;40.084;32.908;2023-09-18T16:47:35;89595.31;;;18.53;37.35
72585;BME280;60618;40.084;32.908;2023-09-18T16:50:03;89592.59;;;18.53;37.25
72585;BME280;60618;40.084;32.908;2023-09-18T16:52:30;89609.09;;;18.62;36.88
72585;BME280;60618;40.084;32.908;2023-09-18T16:54:58;89599.75;;;18.63;36.39
72585;BME280;60618;40.084;32.908;2023-09-18T16:57:24;89602.91;;;18.67;35.81
72585;BME280;60618;40.084;32.908;2023-09-18T16:59:51;89601.53;;;18.61;35.73
72585;BME280;60618;40.084;32.908;2023-09-18T17:02:21;89599.75;;;18.63;35.65
72585;BME280;60618;40.084;32.908;2023-09-18T17:04:49;89613.34;;;18.58;35.38
72585;BME280;60618;40.084;32.908;2023-09-18T17:07:17;89615.84;;;18.56;35.47
72585;BME280;60618;40.084;32.908;2023-09-18T17:09:44;89616.25;;;18.60;35.60
72585;BME280;60618;40.084;32.908;2023-09-18T17:12:12;89613.78;;;18.62;35.58
72585;BME280;60618;40.084;32.908;2023-09-18T17:14:42;89615.47;;;18.65;35.83
72585;BME280;60618;40.084;32.908;2023-09-18T17:17:14;89606.94;;;18.74;36.20
72585;BME280;60618;40.084;32.908;2023-09-18T17:19:41;89616.91;;;18.79;36.22
72585;BME280;60618;40.084;32.908;2023-09-18T17:22:09;89625.44;;;18.70;36.44
72585;BME280;60618;40.084;32.908;2023-09-18T17:24:36;89622.94;;;18.72;36.24
72585;BME280;60618;40.084;32.908;2023-09-18T17:27:07;89625.44;;;18.70;36.11
72585;BME280;60618;40.084;32.908;2023-09-18T17:29:38;89627.91;;;18.68;36.40
72585;BME280;60618;40.084;32.908;2023-09-18T17:32:05;89630.41;;;18.66;36.58
72585;BME280;60618;40.084;32.908;2023-09-18T17:34:33;89629.97;;;18.62;36.51
72585;BME280;60618;40.084;32.908;2023-09-18T17:37:01;89630.38;;;18.53;36.41
72585;BME280;60618;40.084;32.908;2023-09-18T17:39:28;89627.25;;;18.49;36.25
72585;BME280;60618;40.084;32.908;2023-09-18T17:41:56;89619.16;;;18.49;37.15
72585;BME280;60618;40.084;32.908;2023-09-18T17:44:23;89632.22;;;18.44;37.29
72585;BME280;60618;40.084;32.908;2023-09-18T17:46:51;89633.47;;;18.43;37.15
72585;BME280;60618;40.084;32.908;2023-09-18T17:49:18;89633.69;;;18.46;37.11
72585;BME280;60618;40.084;32.908;2023-09-18T17:51:45;89631.06;;;18.40;37.39
72585;BME280;60618;40.084;32.908;2023-09-18T17:54:14;89626.00;;;18.36;37.23
72585;BME280;60618;40.084;32.908;2023-09-18T17:56:41;89630.88;;;18.38;37.45
72585;BME280;60618;40.084;32.908;2023-09-18T17:59:08;89636.66;;;18.29;37.40
72585;BME280;60618;40.084;32.908;2023-09-18T18:01:36;89624.22;;;18.26;37.06
72585;BME280;60618;40.084;32.908;2023-09-18T18:04:03;89623.50;;;18.25;37.26
72585;BME280;60618;40.084;32.908;2023-09-18T18:06:33;89632.31;;;18.26;36.74
72585;BME280;60618;40.084;32.908;2023-09-18T18:09:00;89634.34;;;18.20;36.74
72585;BME280;60618;40.084;32.908;2023-09-18T18:11:28;89623.97;;;18.10;37.04
72585;BME280;60618;40.084;32.908;2023-09-18T18:13:55;89625.50;;;18.06;36.98
72585;BME280;60618;40.084;32.908;2023-09-18T18:16:23;89639.59;;;17.99;37.15
72585;BME280;60618;40.084;32.908;2023-09-18T18:18:51;89620.75;;;17.99;36.88
72585;BME280;60618;40.084;32.908;2023-09-18T18:21:19;89634.69;;;17.97;36.84
72585;BME280;60618;40.084;32.908;2023-09-18T18:23:48;89636.19;;;17.98;36.92
72585;BME280;60618;40.084;32.908;2023-09-18T18:26:19;89637.06;;;17.87;37.18
72585;BME280;60618;40.084;32.908;2023-09-18T18:28:46;89641.22;;;17.89;37.45
72585;BME280;60618;40.084;32.908;2023-09-18T18:31:13;89646.72;;;17.96;37.38
72585;BME280;60618;40.084;32.908;2023-09-18T18:33:43;89637.72;;;17.94;37.20
72585;BME280;60618;40.084;32.908;2023-09-18T18:36:12;89636.06;;;17.91;37.36
72585;BME280;60618;40.084;32.908;2023-09-18T18:38:40;89647.63;;;17.85;37.45
72585;BME280;60618;40.084;32.908;2023-09-18T18:41:07;89644.00;;;17.83;37.49
72585;BME280;60618;40.084;32.908;2023-09-18T18:43:35;89642.97;;;17.67;37.84
72585;BME280;60618;40.084;32.908;2023-09-18T18:46:07;89645.63;;;17.73;37.61
72585;BME280;60618;40.084;32.908;2023-09-18T18:48:34;89636.00;;;17.77;37.66
72585;BME280;60618;40.084;32.908;2023-09-18T18:51:09;89642.31;;;17.61;37.64
72585;BME280;60618;40.084;32.908;2023-09-18T18:53:44;89649.03;;;17.54;38.18
72585;BME280;60618;40.084;32.908;2023-09-18T18:56:18;89647.88;;;17.50;38.17
72585;BME280;60618;40.084;32.908;2023-09-18T18:58:48;89641.41;;;17.40;38.24
72585;BME280;60618;40.084;32.908;2023-09-18T19:01:17;89634.25;;;17.42;38.40
72585;BME280;60618;40.084;32.908;2023-09-18T19:03:44;89637.63;;;17.29;38.93
72585;BME280;60618;40.084;32.908;2023-09-18T19:06:12;89649.84;;;17.30;39.02
72585;BME280;60618;40.084;32.908;2023-09-18T19:08:39;89650.28;;;17.35;38.62
72585;BME280;60618;40.084;32.908;2023-09-18T19:11:06;89651.88;;;17.24;38.97
72585;BME280;60618;40.084;32.908;2023-09-18T19:13:35;89648.59;;;17.13;39.33
72585;BME280;60618;40.084;32.908;2023-09-18T19:16:03;89657.41;;;17.13;39.25
72585;BME280;60618;40.084;32.908;2023-09-18T19:18:30;89650.34;;;17.10;39.73
72585;BME280;60618;40.084;32.908;2023-09-18T19:20:58;89655.88;;;16.99;40.22
72585;BME280;60618;40.084;32.908;2023-09-18T19:23:26;89655.34;;;16.82;40.61
72585;BME280;60618;40.084;32.908;2023-09-18T19:25:56;89656.69;;;16.88;40.54
72585;BME280;60618;40.084;32.908;2023-09-18T19:28:25;89658.25;;;16.84;41.42
72585;BME280;60618;40.084;32.908;2023-09-18T19:30:56;89661.78;;;16.73;41.66
72585;BME280;60618;40.084;32.908;2023-09-18T19:33:26;89656.94;;;16.66;41.76
72585;BME280;60618;40.084;32.908;2023-09-18T19:35:56;89663.59;;;16.59;42.00
72585;BME280;60618;40.084;32.908;2023-09-18T19:38:24;89673.06;;;16.66;42.17
72585;BME280;60618;40.084;32.908;2023-09-18T19:40:51;89659.66;;;16.60;42.66
72585;BME280;60618;40.084;32.908;2023-09-18T19:43:22;89654.84;;;16.53;42.79
72585;BME280;60618;40.084;32.908;2023-09-18T19:45:50;89657.16;;;16.43;43.68
72585;BME280;60618;40.084;32.908;2023-09-18T19:48:18;89666.22;;;16.40;44.13
72585;BME280;60618;40.084;32.908;2023-09-18T19:50:45;89670.19;;;16.34;44.35
72585;BME280;60618;40.084;32.908;2023-09-18T19:53:12;89677.66;;;16.16;45.07
72585;BME280;60618;40.084;32.908;2023-09-18T19:55:40;89675.31;;;16.07;45.53
72585;BME280;60618;40.084;32.908;2023-09-18T19:58:09;89672.44;;;16.00;45.15
72585;BME280;60618;40.084;32.908;2023-09-18T20:00:36;89675.88;;;16.00;45.23
72585;BME280;60618;40.084;32.908;2023-09-18T20:03:03;89670.25;;;15.98;45.49
72585;BME280;60618;40.084;32.908;2023-09-18T20:05:31;89679.00;;;16.04;45.85
72585;BME280;60618;40.084;32.908;2023-09-18T20:07:58;89681.88;;;15.82;46.31
72585;BME280;60618;40.084;32.908;2023-09-18T20:10:26;89679.94;;;15.77;46.89
72585;BME280;60618;40.084;32.908;2023-09-18T20:12:53;89681.16;;;15.76;47.18
72585;BME280;60618;40.084;32.908;2023-09-18T20:15:21;89674.13;;;15.73;47.48
72585;BME280;60618;40.084;32.908;2023-09-18T20:17:48;89681.66;;;15.74;47.86
72585;BME280;60618;40.084;32.908;2023-09-18T20:20:17;89684.38;;;15.69;47.74
72585;BME280;60618;40.084;32.908;2023-09-18T20:22:44;89680.25;;;15.68;48.04
72585;BME280;60618;40.084;32.908;2023-09-18T20:25:12;89680.00;;;15.66;47.73
72585;BME280;60618;40.084;32.908;2023-09-18T20:27:41;89684.91;;;15.61;48.00
72585;BME280;60618;40.084;32.908;2023-09-18T20:30:13;89672.72;;;15.60;48.32
72585;BME280;60618;40.084;32.908;2023-09-18T20:32:41;89681.25;;;15.53;48.57
72585;BME280;60618;40.084;32.908;2023-09-18T20:35:09;89680.03;;;15.54;48.93
72585;BME280;60618;40.084;32.908;2023-09-18T20:37:37;89678.84;;;15.55;48.78
72585;BME280;60618;40.084;32.908;2023-09-18T20:40:05;89684.00;;;15.48;49.05
72585;BME280;60618;40.084;32.908;2023-09-18T20:42:39;89675.47;;;15.44;49.51